Time;durP1;ratioP1;P1;durP2;ratioP2;P2;SDS_P1;SDS_P2;PMS_P1;PMS_P2;Temp;Humidity;BMP_temperature;BMP_pressure;BME280_temperature;BME280_humidity;BME280_pressure;Samples;Min_cycle;Max_cycle;Signal;HPM_P1;HPM_P2
2020/12/07 00:00:08;;;;;;;49.97;26.23;;;;;;;;;;4822296;29;20050;-68
2020/12/07 00:02:34;;;;;;;40.22;19.58;;;;;;;;;;4823593;29;20043;-68
2020/12/07 00:05:03;;;;;;;52.47;27.35;;;;;;;;;;4822813;29;20465;-68
2020/12/07 00:07:29;;;;;;;45.67;24.58;;;;;;;;;;4823874;29;20054;-68
2020/12/07 00:09:56;;;;;;;47.60;22.40;;;;;;;;;;4821256;29;20050;-68
2020/12/07 00:12:26;;;;;;;43.90;23.95;;;;;;;;;;4823081;29;20042;-68
2020/12/07 00:14:52;;;;;;;46.90;25.40;;;;;;;;;;4822781;29;20160;-68
2020/12/07 00:17:20;;;;;;;47.17;27.05;;;;;;;;;;4823564;29;20067;-68
2020/12/07 00:19:46;;;;;;;49.10;25.90;;;;;;;;;;4822777;29;20046;-68
2020/12/07 00:22:13;;;;;;;47.40;24.93;;;;;;;;;;4820522;29;20123;-68
2020/12/07 00:24:39;;;;;;;36.65;18.95;;;;;;;;;;4825632;29;20054;-68
2020/12/07 00:27:05;;;;;;;44.72;21.92;;;;;;;;;;4821905;29;20054;-69
2020/12/07 00:29:31;;;;;;;36.30;18.40;;;;;;;;;;4822888;29;20054;-68
2020/12/07 00:31:58;;;;;;;43.90;23.37;;;;;;;;;;4822997;29;20121;-68
2020/12/07 00:34:24;;;;;;;42.53;22.88;;;;;;;;;;4822856;29;20046;-68
2020/12/07 00:36:50;;;;;;;39.40;22.95;;;;;;;;;;4822858;29;20128;-68
2020/12/07 00:39:17;;;;;;;41.97;21.33;;;;;;;;;;4822647;29;20563;-68
2020/12/07 00:41:43;;;;;;;39.03;22.77;;;;;;;;;;4819124;29;20087;-68
2020/12/07 00:44:10;;;;;;;39.22;22.23;;;;;;;;;;4820851;29;20056;-68
2020/12/07 00:46:40;;;;;;;39.08;21.98;;;;;;;;;;4821969;29;20042;-68
2020/12/07 00:49:06;;;;;;;39.33;22.30;;;;;;;;;;4821837;29;20410;-68
2020/12/07 00:51:33;;;;;;;39.88;21.75;;;;;;;;;;4823087;29;20138;-68
2020/12/07 00:54:00;;;;;;;40.15;22.35;;;;;;;;;;4821480;29;20403;-68
2020/12/07 00:56:26;;;;;;;35.73;20.80;;;;;;;;;;4821138;29;20054;-68
2020/12/07 00:58:53;;;;;;;33.67;18.42;;;;;;;;;;4822133;29;20550;-68
2020/12/07 01:01:19;;;;;;;36.10;21.65;;;;;;;;;;4820107;29;20054;-68
2020/12/07 01:03:45;;;;;;;36.60;22.20;;;;;;;;;;4823504;29;20117;-68
2020/12/07 01:06:12;;;;;;;37.60;23.00;;;;;;;;;;4814764;29;20066;-68
2020/12/07 01:08:40;;;;;;;39.15;19.02;;;;;;;;;;4822013;29;20074;-68
2020/12/07 01:11:06;;;;;;;40.03;19.83;;;;;;;;;;4821937;29;20519;-68
2020/12/07 01:13:33;;;;;;;39.15;20.83;;;;;;;;;;4815628;29;20133;-68
2020/12/07 01:15:59;;;;;;;37.53;22.27;;;;;;;;;;4819815;29;20159;-68
2020/12/07 01:18:26;;;;;;;30.90;17.15;;;;;;;;;;4820885;29;20062;-68
2020/12/07 01:20:53;;;;;;;36.70;20.10;;;;;;;;;;4820334;29;20056;-68
2020/12/07 01:23:20;;;;;;;35.67;19.92;;;;;;;;;;4820799;29;20054;-68
2020/12/07 01:25:46;;;;;;;35.83;20.55;;;;;;;;;;4818559;29;20050;-68
2020/12/07 01:28:13;;;;;;;28.17;16.48;;;;;;;;;;4821001;29;20133;-68
2020/12/07 01:30:39;;;;;;;30.27;16.63;;;;;;;;;;4820132;29;20537;-68
2020/12/07 01:33:06;;;;;;;28.00;15.82;;;;;;;;;;4823671;29;20050;-68
2020/12/07 01:35:33;;;;;;;30.70;17.35;;;;;;;;;;4819939;29;20515;-68
2020/12/07 01:38:00;;;;;;;28.98;17.40;;;;;;;;;;4819875;29;20047;-68
2020/12/07 01:40:26;;;;;;;31.33;15.45;;;;;;;;;;4820615;29;20392;-68
2020/12/07 01:42:53;;;;;;;25.92;16.67;;;;;;;;;;4813935;29;20042;-68
2020/12/07 01:45:19;;;;;;;32.03;17.50;;;;;;;;;;4820514;29;20510;-68
2020/12/07 01:47:46;;;;;;;29.23;17.10;;;;;;;;;;4818129;29;20053;-68
2020/12/07 01:50:14;;;;;;;24.38;12.63;;;;;;;;;;4817223;29;20055;-68
2020/12/07 01:52:42;;;;;;;21.17;11.02;;;;;;;;;;4819783;29;20507;-68
2020/12/07 01:55:10;;;;;;;26.10;14.02;;;;;;;;;;4834013;29;20046;-68
2020/12/07 01:57:57;;;;;;;24.60;14.70;;;;;;;;;;4818368;29;20061;-68
2020/12/07 02:00:24;;;;;;;24.13;11.80;;;;;;;;;;4817803;29;20527;-68
2020/12/07 02:02:59;;;;;;;24.42;15.13;;;;;;;;;;4825007;29;20334;-68
2020/12/07 02:05:26;;;;;;;;;;;;;;;;;;4822794;29;20052;-68
2020/12/07 02:08:13;;;;;;;20.70;11.63;;;;;;;;;;4826314;29;19931;-68
2020/12/07 02:10:47;;;;;;;22.48;14.23;;;;;;;;;;4818666;29;20042;-68
2020/12/07 02:13:18;;;;;;;22.08;13.43;;;;;;;;;;4822306;29;20396;-68
2020/12/07 02:15:46;;;;;;;19.30;12.05;;;;;;;;;;4819564;29;20038;-68
2020/12/07 02:18:14;;;;;;;22.50;13.32;;;;;;;;;;4818645;29;20047;-68
2020/12/07 02:20:46;;;;;;;19.85;11.85;;;;;;;;;;4821369;29;20043;-68
2020/12/07 02:23:17;;;;;;;23.52;12.85;;;;;;;;;;4819374;29;20572;-68
2020/12/07 02:25:51;;;;;;;22.95;14.20;;;;;;;;;;4820717;29;20110;-68
2020/12/07 02:28:19;;;;;;;19.23;11.13;;;;;;;;;;4820488;29;20150;-68
2020/12/07 02:30:46;;;;;;;20.17;9.40;;;;;;;;;;4819976;29;20493;-68
2020/12/07 02:33:13;;;;;;;15.15;7.90;;;;;;;;;;4819456;29;20050;-68
2020/12/07 02:35:39;;;;;;;18.30;10.70;;;;;;;;;;4819613;29;20047;-68
2020/12/07 02:38:06;;;;;;;17.08;9.35;;;;;;;;;;4823037;29;20106;-68
2020/12/07 02:40:39;;;;;;;25.23;12.20;;;;;;;;;;4823710;29;20058;-68
2020/12/07 02:43:07;;;;;;;21.50;11.90;;;;;;;;;;4826541;29;20046;-68
2020/12/07 02:45:34;;;;;;;18.70;12.02;;;;;;;;;;4822873;29;20046;-68
2020/12/07 02:48:05;;;;;;;21.38;12.13;;;;;;;;;;4824810;29;20157;-68
2020/12/07 02:50:34;;;;;;;12.48;7.93;;;;;;;;;;4823215;29;20423;-68
2020/12/07 02:53:04;;;;;;;18.60;11.20;;;;;;;;;;4822942;29;20106;-68
2020/12/07 02:55:32;;;;;;;23.10;12.25;;;;;;;;;;4823196;29;20640;-68
2020/12/07 02:57:58;;;;;;;22.98;12.27;;;;;;;;;;4821482;29;20062;-68
2020/12/07 03:00:28;;;;;;;17.25;10.02;;;;;;;;;;4821340;29;20057;-68
2020/12/07 03:02:55;;;;;;;24.65;10.48;;;;;;;;;;4823022;29;20057;-68
2020/12/07 03:05:26;;;;;;;20.85;13.23;;;;;;;;;;4816936;29;20063;-68
2020/12/07 03:07:56;;;;;;;21.55;13.38;;;;;;;;;;4822495;29;20043;-68
2020/12/07 03:10:23;;;;;;;21.42;12.60;;;;;;;;;;4822513;29;20062;-68
2020/12/07 03:12:52;;;;;;;24.95;13.13;;;;;;;;;;4825287;29;20077;-68
2020/12/07 03:15:22;;;;;;;19.05;12.27;;;;;;;;;;4824254;29;20050;-68
2020/12/07 03:17:49;;;;;;;18.55;11.07;;;;;;;;;;4822636;29;20096;-68
2020/12/07 03:20:20;;;;;;;21.35;10.10;;;;;;;;;;4821839;29;20050;-68
2020/12/07 03:22:49;;;;;;;24.98;13.60;;;;;;;;;;4819597;29;20038;-68
2020/12/07 03:25:16;;;;;;;19.17;11.88;;;;;;;;;;4822664;29;20046;-68
2020/12/07 03:27:45;;;;;;;25.75;12.93;;;;;;;;;;4822231;29;20082;-68
2020/12/07 03:30:12;;;;;;;20.13;12.75;;;;;;;;;;4822715;29;20085;-68
2020/12/07 03:32:38;;;;;;;23.17;13.05;;;;;;;;;;4822698;29;20054;-68
2020/12/07 03:35:04;;;;;;;21.83;11.98;;;;;;;;;;4822081;29;20102;-68
2020/12/07 03:37:30;;;;;;;19.33;11.07;;;;;;;;;;4822937;29;20566;-68
2020/12/07 03:39:59;;;;;;;23.55;12.45;;;;;;;;;;4824004;29;20097;-68
2020/12/07 03:42:33;;;;;;;24.13;12.25;;;;;;;;;;4822014;29;20042;-68
2020/12/07 03:45:03;;;;;;;19.90;10.68;;;;;;;;;;4822238;29;20150;-68
2020/12/07 03:47:30;;;;;;;21.92;12.98;;;;;;;;;;4822370;29;20046;-68
2020/12/07 03:49:57;;;;;;;20.40;10.65;;;;;;;;;;4821415;29;20047;-68
2020/12/07 03:52:25;;;;;;;;;;;;;;;;;;4821814;29;20046;-68
2020/12/07 03:54:53;;;;;;;23.40;12.40;;;;;;;;;;4822325;29;20327;-68
2020/12/07 03:57:20;;;;;;;22.60;12.13;;;;;;;;;;4822268;29;20170;-69
2020/12/07 03:59:47;;;;;;;26.35;12.88;;;;;;;;;;4819258;29;20049;-68
2020/12/07 04:02:14;;;;;;;21.92;11.18;;;;;;;;;;4823674;29;20103;-68
2020/12/07 04:04:53;;;;;;;15.10;9.63;;;;;;;;;;4821835;29;20103;-68
2020/12/07 04:07:21;;;;;;;25.42;11.65;;;;;;;;;;4837397;29;20506;-68
2020/12/07 04:09:49;;;;;;;;;;;;;;;;;;4833588;29;20054;-68
2020/12/07 04:12:15;;;;;;;19.58;9.95;;;;;;;;;;4822185;29;19929;-68
2020/12/07 04:14:42;;;;;;;22.25;12.27;;;;;;;;;;4822733;29;20050;-68
2020/12/07 04:17:08;;;;;;;23.45;12.98;;;;;;;;;;4822137;29;20455;-68
2020/12/07 04:19:34;;;;;;;23.48;13.38;;;;;;;;;;4823410;29;20564;-68
2020/12/07 04:22:01;;;;;;;19.48;7.22;;;;;;;;;;4822822;29;20500;-68
2020/12/07 04:24:27;;;;;;;18.90;10.63;;;;;;;;;;4823240;29;20045;-68
2020/12/07 04:26:54;;;;;;;15.25;7.95;;;;;;;;;;4821805;29;20047;-68
2020/12/07 04:29:20;;;;;;;23.77;14.20;;;;;;;;;;4821573;29;20039;-68
2020/12/07 04:31:46;;;;;;;22.00;13.57;;;;;;;;;;4822375;29;20058;-68
2020/12/07 04:34:13;;;;;;;20.10;12.55;;;;;;;;;;4822611;29;20570;-68
2020/12/07 04:36:39;;;;;;;24.35;12.68;;;;;;;;;;4822690;29;20057;-68
2020/12/07 04:39:05;;;;;;;20.85;11.48;;;;;;;;;;4821920;29;20034;-68
2020/12/07 04:41:31;;;;;;;20.48;12.10;;;;;;;;;;4825476;29;20053;-68
2020/12/07 04:43:58;;;;;;;19.65;9.70;;;;;;;;;;4827198;29;20502;-69
2020/12/07 04:46:24;;;;;;;20.55;12.65;;;;;;;;;;4823689;29;20050;-68
2020/12/07 04:48:52;;;;;;;24.52;13.10;;;;;;;;;;4824228;29;20054;-68
2020/12/07 04:51:20;;;;;;;16.42;9.52;;;;;;;;;;4822668;29;20514;-68
2020/12/07 04:53:47;;;;;;;24.40;14.15;;;;;;;;;;4823106;29;20042;-68
2020/12/07 04:56:14;;;;;;;21.40;12.48;;;;;;;;;;4821375;29;20066;-68
2020/12/07 04:58:42;;;;;;;22.27;12.18;;;;;;;;;;4821939;29;20046;-68
2020/12/07 05:01:08;;;;;;;;;;;;;;;;;;4823108;29;20402;-68
2020/12/07 05:03:34;;;;;;;20.15;11.43;;;;;;;;;;4822305;29;19928;-68
2020/12/07 05:06:04;;;;;;;19.70;11.60;;;;;;;;;;4820957;29;20050;-68
2020/12/07 05:08:36;;;;;;;19.35;8.88;;;;;;;;;;4821129;29;20460;-68
2020/12/07 05:11:02;;;;;;;21.33;12.77;;;;;;;;;;4821663;29;20045;-68
2020/12/07 05:13:37;;;;;;;19.10;10.68;;;;;;;;;;4820784;29;20543;-69
2020/12/07 05:16:04;;;;;;;23.50;11.70;;;;;;;;;;4821432;29;20046;-68
2020/12/07 05:18:34;;;;;;;18.38;10.60;;;;;;;;;;4819001;29;20049;-68
2020/12/07 05:21:00;;;;;;;17.98;8.70;;;;;;;;;;4824462;29;20081;-68
2020/12/07 05:23:26;;;;;;;20.58;13.13;;;;;;;;;;4821879;29;20053;-68
2020/12/07 05:25:54;;;;;;;20.65;11.75;;;;;;;;;;4822966;29;20046;-68
2020/12/07 05:28:28;;;;;;;22.05;12.52;;;;;;;;;;4821199;29;20038;-68
2020/12/07 05:30:58;;;;;;;20.60;11.57;;;;;;;;;;4821189;29;20054;-68
2020/12/07 05:33:24;;;;;;;25.02;13.25;;;;;;;;;;4820338;29;20066;-68
2020/12/07 05:35:53;;;;;;;25.08;9.73;;;;;;;;;;4821765;29;20069;-68
2020/12/07 05:38:20;;;;;;;25.38;13.50;;;;;;;;;;4821246;29;20526;-68
2020/12/07 05:40:46;;;;;;;22.20;10.98;;;;;;;;;;4822035;29;20042;-68
2020/12/07 05:43:12;;;;;;;29.23;13.95;;;;;;;;;;4819835;29;20061;-68
2020/12/07 05:45:40;;;;;;;23.15;13.50;;;;;;;;;;4821975;29;20074;-68
2020/12/07 05:48:09;;;;;;;24.83;9.52;;;;;;;;;;4817946;29;20054;-68
2020/12/07 05:50:41;;;;;;;26.48;14.18;;;;;;;;;;4821572;29;20047;-68
2020/12/07 05:53:07;;;;;;;26.90;14.88;;;;;;;;;;4821743;29;20507;-68
2020/12/07 05:55:34;;;;;;;24.65;12.50;;;;;;;;;;4821070;29;20150;-68
2020/12/07 05:58:02;;;;;;;18.95;10.45;;;;;;;;;;4820485;29;20237;-68
2020/12/07 06:00:30;;;;;;;24.35;14.23;;;;;;;;;;4823054;29;20053;-68
2020/12/07 06:02:56;;;;;;;;;;;;;;;;;;4821988;29;20511;-68
2020/12/07 06:05:23;;;;;;;24.73;12.82;;;;;;;;;;4821856;29;19976;-68
2020/12/07 06:08:07;;;;;;;22.55;11.13;;;;;;;;;;4821223;29;20054;-68
2020/12/07 06:10:37;;;;;;;27.38;11.57;;;;;;;;;;4821533;29;20047;-68
2020/12/07 06:13:11;;;;;;;18.85;9.35;;;;;;;;;;4824612;29;20035;-69
2020/12/07 06:15:42;;;;;;;17.10;8.98;;;;;;;;;;4825593;29;20047;-69
2020/12/07 06:18:20;;;;;;;21.67;11.65;;;;;;;;;;4821048;29;20038;-68
2020/12/07 06:20:46;;;;;;;29.17;15.43;;;;;;;;;;4822935;29;20054;-68
2020/12/07 06:23:16;;;;;;;23.40;10.77;;;;;;;;;;4824852;29;20050;-68
2020/12/07 06:25:44;;;;;;;19.77;9.35;;;;;;;;;;4825089;29;20069;-68
2020/12/07 06:28:11;;;;;;;19.95;9.07;;;;;;;;;;4823461;29;20053;-68
2020/12/07 06:30:38;;;;;;;19.65;10.00;;;;;;;;;;4825352;29;20055;-68
2020/12/07 06:33:05;;;;;;;22.92;9.68;;;;;;;;;;4824058;29;20072;-69
2020/12/07 06:35:44;;;;;;;23.30;12.13;;;;;;;;;;4822824;29;20054;-68
2020/12/07 06:38:11;;;;;;;24.60;13.55;;;;;;;;;;4824200;29;20042;-69
2020/12/07 06:40:38;;;;;;;21.52;10.02;;;;;;;;;;4823534;29;20049;-69
2020/12/07 06:43:14;;;;;;;23.30;11.80;;;;;;;;;;4824815;29;20498;-69
2020/12/07 06:45:41;;;;;;;14.65;7.57;;;;;;;;;;4824780;29;20063;-69
2020/12/07 06:48:11;;;;;;;17.90;8.45;;;;;;;;;;4824070;29;20050;-68
2020/12/07 06:50:38;;;;;;;24.52;12.50;;;;;;;;;;4823379;29;20054;-69
2020/12/07 06:53:05;;;;;;;;;;;;;;;;;;4824106;29;20116;-69
2020/12/07 06:55:31;;;;;;;16.83;7.53;;;;;;;;;;4824562;29;19939;-68
2020/12/07 06:57:58;;;;;;;27.95;13.63;;;;;;;;;;4824373;29;20058;-69
2020/12/07 07:00:25;;;;;;;24.60;11.93;;;;;;;;;;4822793;29;20042;-68
2020/12/07 07:02:58;;;;;;;21.10;10.85;;;;;;;;;;4823498;29;20103;-68
2020/12/07 07:05:26;;;;;;;21.65;10.00;;;;;;;;;;4823903;29;20046;-69
2020/12/07 07:07:53;;;;;;;24.17;13.30;;;;;;;;;;4816318;29;20054;-69
2020/12/07 07:10:20;;;;;;;15.13;8.85;;;;;;;;;;4823605;29;20061;-69
2020/12/07 07:12:46;;;;;;;25.17;12.98;;;;;;;;;;4824511;29;20110;-69
2020/12/07 07:15:13;;;;;;;18.87;8.70;;;;;;;;;;4818208;29;20453;-68
2020/12/07 07:17:40;;;;;;;27.92;12.52;;;;;;;;;;4824242;29;20111;-69
2020/12/07 07:20:07;;;;;;;17.38;9.40;;;;;;;;;;4824067;29;20046;-69
2020/12/07 07:22:35;;;;;;;22.63;12.15;;;;;;;;;;4823986;29;20043;-69
2020/12/07 07:25:08;;;;;;;25.60;12.07;;;;;;;;;;4821930;29;20597;-69
2020/12/07 07:30:20;;;;;;;29.05;13.52;;;;;;;;;;4828566;29;20522;-69
2020/12/07 07:32:48;;;;;;;22.25;11.65;;;;;;;;;;4823823;29;20579;-69
2020/12/07 07:35:14;;;;;;;;;;;;;;;;;;4817934;29;20046;-69
2020/12/07 07:37:40;;;;;;;19.20;9.32;;;;;;;;;;4824112;29;19932;-69
2020/12/07 07:40:14;;;;;;;21.73;10.47;;;;;;;;;;4823244;29;20054;-69
2020/12/07 07:42:46;;;;;;;16.67;6.80;;;;;;;;;;4823165;29;20049;-69
2020/12/07 07:45:14;;;;;;;19.27;10.57;;;;;;;;;;4820429;29;20114;-69
2020/12/07 07:47:49;;;;;;;18.15;8.45;;;;;;;;;;4823912;29;20046;-69
2020/12/07 08:02:00;;;;;;;22.27;11.63;;;;;;;;;;4821228;29;20526;-69
2020/12/07 08:17:51;;;;;;;23.80;12.05;;;;;;;;;;4822998;29;20050;-69
2020/12/07 08:20:19;;;;;;;18.15;10.27;;;;;;;;;;4823413;29;20416;-69
2020/12/07 08:22:45;;;;;;;;;;;;;;;;;;4823777;29;20053;-69
2020/12/07 08:25:12;;;;;;;21.83;12.80;;;;;;;;;;4823217;29;19931;-69
2020/12/07 08:27:38;;;;;;;23.10;8.50;;;;;;;;;;4823576;29;20058;-69
2020/12/07 08:30:05;;;;;;;21.77;10.30;;;;;;;;;;4823195;29;20286;-69
2020/12/07 08:32:32;;;;;;;21.02;11.88;;;;;;;;;;4820669;29;20039;-69
2020/12/07 08:34:59;;;;;;;24.45;10.15;;;;;;;;;;4823227;29;20392;-69
2020/12/07 08:37:25;;;;;;;23.42;12.88;;;;;;;;;;4823893;29;20058;-69
2020/12/07 08:39:52;;;;;;;23.37;12.20;;;;;;;;;;4821869;29;20046;-69
2020/12/07 08:42:19;;;;;;;21.95;11.68;;;;;;;;;;4823052;29;20292;-69
2020/12/07 08:44:45;;;;;;;20.77;10.48;;;;;;;;;;4825153;29;20137;-69
2020/12/07 08:47:12;;;;;;;20.23;11.10;;;;;;;;;;4822411;29;20050;-69
2020/12/07 08:49:38;;;;;;;21.73;10.60;;;;;;;;;;4823072;29;20050;-69
2020/12/07 08:52:04;;;;;;;19.60;9.57;;;;;;;;;;4822904;29;20074;-69
2020/12/07 08:54:32;;;;;;;22.00;10.98;;;;;;;;;;4821953;29;20054;-69
2020/12/07 08:56:59;;;;;;;15.98;8.70;;;;;;;;;;4822182;29;20088;-69
2020/12/07 08:59:25;;;;;;;20.17;10.55;;;;;;;;;;4823029;29;20050;-69
2020/12/07 09:01:51;;;;;;;17.75;9.45;;;;;;;;;;4821267;29;20102;-69
2020/12/07 09:04:17;;;;;;;22.48;10.73;;;;;;;;;;4821021;29;20058;-69
2020/12/07 09:06:46;;;;;;;17.48;8.88;;;;;;;;;;4822539;29;20046;-69
2020/12/07 09:09:12;;;;;;;20.98;10.82;;;;;;;;;;4821529;29;20048;-69
2020/12/07 09:11:38;;;;;;;19.23;9.35;;;;;;;;;;4822450;29;20074;-69
2020/12/07 09:14:08;;;;;;;15.40;7.93;;;;;;;;;;4820647;29;20461;-69
2020/12/07 09:16:34;;;;;;;19.33;10.10;;;;;;;;;;4820162;29;20049;-69
2020/12/07 09:19:00;;;;;;;21.73;8.85;;;;;;;;;;4822955;29;20456;-69
2020/12/07 09:21:27;;;;;;;17.85;7.35;;;;;;;;;;4820095;29;20133;-69
2020/12/07 09:23:53;;;;;;;20.10;9.70;;;;;;;;;;4822433;29;20120;-69
2020/12/07 09:26:19;;;;;;;22.20;10.30;;;;;;;;;;4820042;29;20400;-69
2020/12/07 09:28:45;;;;;;;16.98;8.30;;;;;;;;;;4822346;29;20513;-69
2020/12/07 09:31:11;;;;;;;15.60;7.40;;;;;;;;;;4821885;29;20046;-69
2020/12/07 09:33:38;;;;;;;19.33;8.63;;;;;;;;;;4821798;29;20103;-69
2020/12/07 09:36:05;;;;;;;19.25;11.23;;;;;;;;;;4822317;29;20092;-69
2020/12/07 09:38:31;;;;;;;14.45;6.65;;;;;;;;;;4822267;29;20051;-69
2020/12/07 09:40:58;;;;;;;22.38;9.63;;;;;;;;;;4825672;29;20054;-69
2020/12/07 09:43:25;;;;;;;20.17;10.27;;;;;;;;;;4822336;29;20127;-70
2020/12/07 09:45:51;;;;;;;15.80;9.38;;;;;;;;;;4821710;29;20050;-70
2020/12/07 09:48:17;;;;;;;23.52;11.82;;;;;;;;;;4821587;29;20788;-70
2020/12/07 09:50:45;;;;;;;21.35;10.75;;;;;;;;;;4822205;29;20042;-70
2020/12/07 09:53:16;;;;;;;22.70;11.38;;;;;;;;;;4821835;29;20502;-70
2020/12/07 09:55:44;;;;;;;31.25;11.60;;;;;;;;;;4820625;29;20050;-69
2020/12/07 09:58:12;;;;;;;21.83;11.45;;;;;;;;;;4821046;29;20075;-70
2020/12/07 10:00:38;;;;;;;23.10;10.00;;;;;;;;;;4818336;29;20594;-70
2020/12/07 10:03:04;;;;;;;17.48;9.77;;;;;;;;;;4821783;29;20082;-70
2020/12/07 10:05:31;;;;;;;21.95;11.07;;;;;;;;;;4821662;29;20070;-70
2020/12/07 10:07:57;;;;;;;19.55;10.68;;;;;;;;;;4821914;29;20121;-70
2020/12/07 10:10:23;;;;;;;19.15;10.55;;;;;;;;;;4821507;29;20074;-69
2020/12/07 10:12:50;;;;;;;19.23;11.60;;;;;;;;;;4822450;29;20054;-70
2020/12/07 10:15:16;;;;;;;18.60;9.25;;;;;;;;;;4820163;29;20292;-70
2020/12/07 10:17:42;;;;;;;18.77;10.00;;;;;;;;;;4821262;29;20491;-70
2020/12/07 10:20:09;;;;;;;22.38;11.57;;;;;;;;;;4821744;29;20058;-70
2020/12/07 10:22:35;;;;;;;20.73;9.85;;;;;;;;;;4821914;29;20046;-70
2020/12/07 10:25:01;;;;;;;19.88;10.27;;;;;;;;;;4821210;29;20057;-70
2020/12/07 10:27:27;;;;;;;16.25;6.72;;;;;;;;;;4820706;29;20050;-70
2020/12/07 10:29:53;;;;;;;16.58;8.75;;;;;;;;;;4820590;29;20143;-70
2020/12/07 10:32:20;;;;;;;22.83;11.80;;;;;;;;;;4821870;29;20046;-70
2020/12/07 10:34:47;;;;;;;20.15;11.77;;;;;;;;;;4820536;29;20050;-70
2020/12/07 10:37:15;;;;;;;16.58;8.05;;;;;;;;;;4821292;29;20051;-70
2020/12/07 10:39:41;;;;;;;19.00;10.15;;;;;;;;;;4821584;29;20133;-70
2020/12/07 10:42:08;;;;;;;18.17;10.32;;;;;;;;;;4820870;29;20042;-70
2020/12/07 10:44:34;;;;;;;17.60;10.52;;;;;;;;;;4821855;29;20526;-70
2020/12/07 10:47:00;;;;;;;21.23;10.40;;;;;;;;;;4819608;29;20290;-70
2020/12/07 10:49:26;;;;;;;19.02;11.25;;;;;;;;;;4819988;29;20047;-70
2020/12/07 10:51:53;;;;;;;20.43;11.50;;;;;;;;;;4821727;29;20050;-70
2020/12/07 10:54:19;;;;;;;19.45;9.32;;;;;;;;;;4821704;29;20839;-70
2020/12/07 10:56:46;;;;;;;19.83;10.57;;;;;;;;;;4819798;29;20073;-70
2020/12/07 10:59:12;;;;;;;19.85;9.70;;;;;;;;;;4822697;29;20134;-70
2020/12/07 11:01:39;;;;;;;21.40;10.43;;;;;;;;;;4822442;29;20427;-70
2020/12/07 11:04:05;;;;;;;23.20;11.27;;;;;;;;;;4824192;29;20499;-70
2020/12/07 11:06:34;;;;;;;20.50;10.90;;;;;;;;;;4824719;29;20119;-70
2020/12/07 11:09:07;;;;;;;21.92;10.90;;;;;;;;;;4824578;29;20054;-70
2020/12/07 11:11:33;;;;;;;14.77;8.00;;;;;;;;;;4824771;29;20042;-70
2020/12/07 11:13:59;;;;;;;23.15;11.05;;;;;;;;;;4823627;29;20047;-70
2020/12/07 11:16:25;;;;;;;21.27;11.27;;;;;;;;;;4824137;29;20103;-71
2020/12/07 11:18:52;;;;;;;20.98;12.10;;;;;;;;;;4823660;29;20137;-70
2020/12/07 11:21:18;;;;;;;19.92;10.02;;;;;;;;;;4824261;29;20038;-70
2020/12/07 11:23:46;;;;;;;25.38;11.15;;;;;;;;;;4824407;29;20512;-70
2020/12/07 11:26:13;;;;;;;20.33;10.18;;;;;;;;;;4819766;29;20514;-70
2020/12/07 11:28:40;;;;;;;19.45;10.85;;;;;;;;;;4823720;29;20135;-70
2020/12/07 11:31:10;;;;;;;19.88;10.20;;;;;;;;;;4822533;29;20061;-70
2020/12/07 11:33:37;;;;;;;22.38;11.75;;;;;;;;;;4823515;29;20500;-70
2020/12/07 11:36:12;;;;;;;22.73;11.60;;;;;;;;;;4823768;29;20050;-70
2020/12/07 11:38:49;;;;;;;16.90;9.80;;;;;;;;;;4823021;29;20052;-70
2020/12/07 11:41:28;;;;;;;19.38;10.13;;;;;;;;;;4821794;29;20060;-70
2020/12/07 11:44:08;;;;;;;15.50;7.30;;;;;;;;;;4824135;29;20508;-70
2020/12/07 11:46:41;;;;;;;20.77;10.68;;;;;;;;;;4823008;29;20046;-70
2020/12/07 11:49:08;;;;;;;16.52;8.60;;;;;;;;;;4820861;29;20078;-70
2020/12/07 11:51:34;;;;;;;16.73;10.48;;;;;;;;;;4824454;29;20518;-70
2020/12/07 11:54:00;;;;;;;14.68;7.25;;;;;;;;;;4823798;29;20053;-70
2020/12/07 11:56:31;;;;;;;21.67;9.63;;;;;;;;;;4823495;29;20062;-70
2020/12/07 11:58:57;;;;;;;21.10;10.77;;;;;;;;;;4822473;29;20046;-70
2020/12/07 12:01:24;;;;;;;22.35;10.48;;;;;;;;;;4822712;29;20078;-70
2020/12/07 12:03:50;;;;;;;18.70;7.93;;;;;;;;;;4825461;29;20065;-70
2020/12/07 12:06:20;;;;;;;17.35;9.20;;;;;;;;;;4821531;29;20058;-71
2020/12/07 12:08:46;;;;;;;23.73;11.38;;;;;;;;;;4820659;29;20057;-70
2020/12/07 12:11:13;;;;;;;18.77;9.27;;;;;;;;;;4816563;29;20042;-70
2020/12/07 12:13:39;;;;;;;18.00;10.63;;;;;;;;;;4823356;29;20043;-70
2020/12/07 12:16:05;;;;;;;19.60;9.18;;;;;;;;;;4821681;29;20057;-71
2020/12/07 12:18:32;;;;;;;19.33;11.65;;;;;;;;;;4823540;29;20422;-70
2020/12/07 12:20:58;;;;;;;16.40;8.07;;;;;;;;;;4807318;29;20111;-70
2020/12/07 12:23:24;;;;;;;23.10;12.43;;;;;;;;;;4818516;29;20055;-70
2020/12/07 12:25:50;;;;;;;17.08;8.93;;;;;;;;;;4821234;29;20054;-70
2020/12/07 12:28:16;;;;;;;26.83;12.30;;;;;;;;;;4822844;29;20045;-70
2020/12/07 12:30:43;;;;;;;22.30;12.68;;;;;;;;;;4822139;29;20050;-70
2020/12/07 12:33:09;;;;;;;16.38;8.82;;;;;;;;;;4823040;29;20074;-70
2020/12/07 12:35:35;;;;;;;19.92;10.15;;;;;;;;;;4826524;29;20046;-70
2020/12/07 12:38:01;;;;;;;19.83;9.20;;;;;;;;;;4821974;29;20057;-70
2020/12/07 12:40:27;;;;;;;24.80;10.52;;;;;;;;;;4824256;29;20518;-70
2020/12/07 12:42:53;;;;;;;15.13;7.82;;;;;;;;;;4823113;29;20046;-70
2020/12/07 12:45:20;;;;;;;25.58;12.88;;;;;;;;;;4824200;29;20103;-70
2020/12/07 12:47:46;;;;;;;18.80;7.72;;;;;;;;;;4822442;29;20487;-70
2020/12/07 12:50:12;;;;;;;20.50;9.05;;;;;;;;;;4817709;29;20038;-70
2020/12/07 12:52:39;;;;;;;28.08;14.07;;;;;;;;;;4824196;29;20133;-70
2020/12/07 12:55:05;;;;;;;19.87;10.33;;;;;;;;;;4823925;29;20050;-70
2020/12/07 12:57:31;;;;;;;22.35;12.95;;;;;;;;;;4822741;29;20395;-70
2020/12/07 12:59:58;;;;;;;14.52;7.28;;;;;;;;;;4821080;29;20081;-71
2020/12/07 13:02:24;;;;;;;22.23;12.70;;;;;;;;;;4826526;29;20070;-70
2020/12/07 13:04:50;;;;;;;14.52;8.05;;;;;;;;;;4822715;29;20089;-70
2020/12/07 13:07:17;;;;;;;25.45;12.30;;;;;;;;;;4822225;29;20054;-71
2020/12/07 13:09:43;;;;;;;20.58;11.65;;;;;;;;;;4823307;29;20034;-71
2020/12/07 13:12:10;;;;;;;23.17;11.73;;;;;;;;;;4826850;29;20062;-70
2020/12/07 13:14:36;;;;;;;27.42;13.25;;;;;;;;;;4821380;29;20054;-70
2020/12/07 13:17:18;;;;;;;25.40;12.03;;;;;;;;;;4822523;29;20046;-71
2020/12/07 13:19:45;;;;;;;22.83;12.55;;;;;;;;;;4822317;29;20102;-70
2020/12/07 13:22:25;;;;;;;15.85;8.73;;;;;;;;;;4824032;29;20059;-70
2020/12/07 13:29:51;;;;;;;27.00;14.00;;;;;;;;;;4821169;29;20055;-70
2020/12/07 13:32:17;;;;;;;18.77;11.10;;;;;;;;;;4822984;29;20046;-71
2020/12/07 13:34:45;;;;;;;24.77;13.07;;;;;;;;;;4823036;29;20054;-70
2020/12/07 13:37:11;;;;;;;20.60;11.27;;;;;;;;;;4821310;29;20141;-71
2020/12/07 13:39:37;;;;;;;22.05;11.48;;;;;;;;;;4821422;29;20058;-71
2020/12/07 13:42:04;;;;;;;23.88;12.77;;;;;;;;;;4822846;29;20042;-71
2020/12/07 13:44:30;;;;;;;23.13;12.10;;;;;;;;;;4821897;29;20218;-71
2020/12/07 13:46:56;;;;;;;26.58;12.25;;;;;;;;;;4821883;29;20128;-71
2020/12/07 13:49:23;;;;;;;19.10;10.55;;;;;;;;;;4824919;29;20562;-71
2020/12/07 13:51:49;;;;;;;22.00;9.75;;;;;;;;;;4821752;29;20419;-71
2020/12/07 13:54:16;;;;;;;15.02;6.78;;;;;;;;;;4821327;29;20045;-71
2020/12/07 13:56:42;;;;;;;21.80;11.27;;;;;;;;;;4822091;29;20074;-71
2020/12/07 13:59:09;;;;;;;24.77;12.65;;;;;;;;;;4819166;29;20053;-70
2020/12/07 14:01:38;;;;;;;21.77;11.18;;;;;;;;;;4821090;29;20054;-70
2020/12/07 14:04:45;;;;;;;19.52;9.90;;;;;;;;;;4821678;29;20065;-70
2020/12/07 14:06:57;;;;;;;16.15;8.20;;;;;;;;;;4819589;29;20077;-71
2020/12/07 14:09:24;;;;;;;20.52;13.20;;;;;;;;;;4821312;29;20046;-70
2020/12/07 14:11:50;;;;;;;18.65;10.30;;;;;;;;;;4820820;29;20499;-70
2020/12/07 14:14:16;;;;;;;22.02;8.88;;;;;;;;;;4820833;29;20046;-71
2020/12/07 14:16:45;;;;;;;22.95;12.25;;;;;;;;;;4821693;29;20895;-70
2020/12/07 14:19:15;;;;;;;17.95;9.63;;;;;;;;;;4821360;29;20407;-71
2020/12/07 14:24:39;;;;;;;23.25;10.65;;;;;;;;;;4821388;29;20489;-70
2020/12/07 14:40:12;;;;;;;20.88;9.32;;;;;;;;;;4823650;29;20051;-70
2020/12/07 14:42:38;;;;;;;22.77;12.07;;;;;;;;;;4824722;29;20486;-70
2020/12/07 14:45:06;;;;;;;16.38;8.60;;;;;;;;;;4824875;29;20054;-70
2020/12/07 14:47:37;;;;;;;22.55;11.77;;;;;;;;;;4824064;29;20050;-70
2020/12/07 14:50:11;;;;;;;30.85;12.55;;;;;;;;;;4824255;29;20046;-70
2020/12/07 14:52:37;;;;;;;22.88;12.43;;;;;;;;;;4824935;29;20099;-70
2020/12/07 14:55:20;;;;;;;23.38;13.90;;;;;;;;;;4824380;29;20042;-70
2020/12/07 14:58:29;;;;;;;24.52;13.18;;;;;;;;;;4822587;29;20396;-70
2020/12/07 15:03:50;;;;;;;26.38;14.05;;;;;;;;;;4824830;29;20054;-70
2020/12/07 15:06:20;;;;;;;28.00;10.38;;;;;;;;;;4825118;29;20053;-70
2020/12/07 15:11:52;;;;;;;26.52;13.63;;;;;;;;;;4821476;29;20062;-70
2020/12/07 15:14:20;;;;;;;29.23;14.45;;;;;;;;;;4816927;29;20080;-70
2020/12/07 15:16:46;;;;;;;25.88;11.35;;;;;;;;;;4824162;29;20638;-69
2020/12/07 15:19:12;;;;;;;16.55;8.35;;;;;;;;;;4823782;29;20055;-70
2020/12/07 15:21:38;;;;;;;21.50;13.45;;;;;;;;;;4823791;29;20042;-69